Time;durP1;ratioP1;P1;durP2;ratioP2;P2;SDS_P1;SDS_P2;PMS_P1;PMS_P2;Temp;Humidity;BMP_temperature;BMP_pressure;BME280_temperature;BME280_humidity;BME280_pressure;Samples;Min_cycle;Max_cycle;Signal;HPM_P1;HPM_P2
2021/05/11 00:00:45;;;;;;;4.33;2.90;;;;;;;14.16;72.67;98728.03;5055698;28;20234;-82
2021/05/11 00:03:12;;;;;;;3.47;2.73;;;;;;;14.12;72.92;98738.53;5037710;28;20229;-83
2021/05/11 00:05:38;;;;;;;5.20;2.80;;;;;;;14.10;71.98;98728.00;5037575;28;20278;-83
2021/05/11 00:08:05;;;;;;;4.60;2.67;;;;;;;14.09;72.02;98715.59;5016498;28;20233;-82
2021/05/11 00:10:31;;;;;;;3.90;2.87;;;;;;;13.98;71.94;98719.34;5018049;28;20283;-81
2021/05/11 00:12:58;;;;;;;5.20;2.90;;;;;;;13.97;72.20;98727.69;5017592;28;20232;-81
2021/05/11 00:15:25;;;;;;;5.10;3.20;;;;;;;13.88;72.63;98713.94;5001628;28;20242;-82
2021/05/11 00:17:52;;;;;;;3.30;3.00;;;;;;;13.87;72.78;98722.25;5011540;28;20663;-81
2021/05/11 00:20:19;;;;;;;4.63;2.80;;;;;;;13.91;72.84;98717.97;5020068;28;20228;-83
2021/05/11 00:22:46;;;;;;;5.07;3.10;;;;;;;13.89;73.30;98726.31;5037483;28;20274;-83
2021/05/11 00:25:13;;;;;;;3.87;3.00;;;;;;;13.78;74.39;98713.06;5054199;28;20717;-82
2021/05/11 00:27:41;;;;;;;4.37;3.40;;;;;;;13.72;74.24;98711.44;5024865;28;20231;-84
2021/05/11 00:30:09;;;;;;;4.40;3.27;;;;;;;13.66;74.33;98719.50;5053528;28;20716;-82
2021/05/11 00:32:35;;;;;;;3.87;2.93;;;;;;;13.62;74.42;98722.97;5015377;28;20231;-83
2021/05/11 00:35:02;;;;;;;4.30;3.10;;;;;;;13.54;74.23;98713.47;5017747;28;20642;-83
2021/05/11 00:37:29;;;;;;;3.23;3.00;;;;;;;13.49;74.99;98707.25;5021752;28;20626;-81
2021/05/11 00:39:55;;;;;;;3.33;2.90;;;;;;;13.45;74.86;98717.72;5020927;28;20238;-82
2021/05/11 00:42:21;;;;;;;3.70;3.00;;;;;;;13.50;74.81;98727.72;5036962;28;20285;-82
2021/05/11 00:44:48;;;;;;;5.10;3.17;;;;;;;13.46;74.92;98729.31;5054881;28;20226;-83
2021/05/11 00:47:14;;;;;;;5.37;3.13;;;;;;;13.39;74.88;98717.97;5037260;28;20232;-78
2021/05/11 00:49:41;;;;;;;3.57;3.00;;;;;;;13.39;75.31;98710.69;5020843;28;20233;-80
2021/05/11 00:52:08;;;;;;;4.43;3.00;;;;;;;13.34;75.41;98716.06;5036554;28;20235;-83
2021/05/11 00:54:35;;;;;;;4.13;2.90;;;;;;;13.34;74.93;98704.50;5020978;28;20233;-82
2021/05/11 00:57:03;;;;;;;3.40;3.10;;;;;;;13.38;75.28;98724.44;5053694;28;20257;-85
2021/05/11 00:59:30;;;;;;;7.00;3.83;;;;;;;13.32;75.32;98722.75;5037119;28;20240;-84
2021/05/11 01:01:58;;;;;;;4.60;3.23;;;;;;;13.22;75.52;98718.94;5037193;28;20234;-84
2021/05/11 01:04:25;;;;;;;3.30;3.00;;;;;;;13.18;76.04;98722.41;5036658;28;20636;-81
2021/05/11 01:06:54;;;;;;;4.67;3.17;;;;;;;13.09;76.28;98711.28;5037031;28;20230;-81
2021/05/11 01:09:22;;;;;;;4.17;3.30;;;;;;;13.07;76.52;98713.41;5053493;28;20234;-81
2021/05/11 01:11:49;;;;;;;4.00;3.47;;;;;;;13.03;76.39;98706.94;5036682;28;20237;-81
2021/05/11 01:14:16;;;;;;;4.30;3.27;;;;;;;13.04;76.82;98721.19;5026714;28;20658;-82
2021/05/11 01:16:44;;;;;;;4.03;3.50;;;;;;;12.95;76.56;98699.34;5020574;28;20234;-84
2021/05/11 01:19:47;;;;;;;4.30;3.37;;;;;;;12.95;76.57;98695.84;5030476;28;20236;-83
2021/05/11 01:22:41;;;;;;;3.40;2.93;;;;;;;12.97;76.31;98691.03;5037585;28;20600;-83
2021/05/11 01:25:14;;;;;;;3.87;3.07;;;;;;;13.00;76.05;98702.06;5057600;28;20227;-82
2021/05/11 01:49:46;;;;;;;5.17;3.60;;;;;;;12.61;78.01;98700.66;5056962;28;20229;-84
2021/05/11 01:52:27;;;;;;;5.00;3.20;;;;;;;12.58;78.30;98704.69;5045306;28;20596;-84
2021/05/11 02:24:37;;;;;;;4.27;3.33;;;;;;;12.02;79.15;98686.38;5056678;28;20249;-82
2021/05/11 02:27:04;;;;;;;3.60;3.30;;;;;;;11.93;79.21;98680.63;5022349;28;20229;-81
2021/05/11 02:29:30;;;;;;;4.97;3.50;;;;;;;11.98;79.49;98688.75;5057397;28;20660;-83
2021/05/11 02:31:57;;;;;;;4.93;3.47;;;;;;;11.92;79.34;98676.31;5056236;28;20247;-83
2021/05/11 02:34:23;;;;;;;3.40;3.10;;;;;;;11.89;79.18;98668.78;5039366;28;20229;-83
2021/05/11 02:36:49;;;;;;;3.90;3.57;;;;;;;11.83;79.35;98665.22;5039856;28;20222;-83
2021/05/11 02:39:17;;;;;;;3.50;3.20;;;;;;;11.83;79.29;98661.72;5008264;28;20228;-82
2021/05/11 02:41:44;;;;;;;3.50;3.20;;;;;;;11.84;79.20;98664.16;5040894;28;20239;-82
2021/05/11 02:44:11;;;;;;;3.67;3.23;;;;;;;11.78;79.68;98656.28;5057187;28;20287;-82
2021/05/11 02:46:38;;;;;;;4.67;3.33;;;;;;;11.77;79.79;98657.34;5024047;28;20225;-82
2021/05/11 02:49:06;;;;;;;4.73;3.60;;;;;;;11.71;79.93;98653.75;5056574;28;20225;-81
2021/05/11 02:51:32;;;;;;;5.83;3.60;;;;;;;11.77;79.82;98657.34;5041314;28;20531;-83
2021/05/11 02:53:59;;;;;;;5.10;3.43;;;;;;;11.69;79.87;98655.09;5057449;28;20240;-83
2021/05/11 02:56:25;;;;;;;4.60;3.70;;;;;;;11.68;79.88;98662.31;5057734;28;20240;-83
2021/05/11 02:58:52;;;;;;;4.10;3.70;;;;;;;11.67;79.79;98658.00;5026659;28;20225;-82
2021/05/11 03:01:18;;;;;;;5.60;3.77;;;;;;;11.72;80.39;98674.19;5039129;28;20236;-81
2021/05/11 03:03:45;;;;;;;4.80;3.50;;;;;;;11.62;80.78;98663.31;5059067;28;20297;-81
2021/05/11 03:06:12;;;;;;;4.53;3.53;;;;;;;11.55;80.97;98654.66;5058119;28;20232;-80
2021/05/11 03:08:43;;;;;;;3.83;3.13;;;;;;;11.47;81.33;98653.22;5062201;28;20229;-80
2021/05/11 03:11:12;;;;;;;3.43;3.13;;;;;;;11.51;81.35;98660.75;5063263;28;20636;-81
2021/05/11 03:13:42;;;;;;;3.80;3.20;;;;;;;11.49;81.54;98672.53;5049211;28;20247;-81
2021/05/11 03:16:09;;;;;;;4.83;3.30;;;;;;;11.44;81.67;98656.38;5046719;28;20279;-80
2021/05/11 03:18:35;;;;;;;3.57;3.27;;;;;;;11.39;81.84;98655.50;5065057;28;20229;-81
2021/05/11 03:21:04;;;;;;;3.67;3.37;;;;;;;11.35;81.89;98668.59;5047973;28;20312;-81
2021/05/11 03:23:30;;;;;;;4.20;3.40;;;;;;;11.24;82.14;98648.09;5046673;28;20572;-81
2021/05/11 03:25:57;;;;;;;3.33;3.07;;;;;;;11.25;82.17;98647.00;5029781;28;20221;-81
2021/05/11 03:28:23;;;;;;;3.63;3.33;;;;;;;11.31;82.19;98659.44;5044001;28;20240;-80
2021/05/11 03:30:52;;;;;;;3.93;3.40;;;;;;;11.30;82.31;98648.94;5063018;28;20230;-81
2021/05/11 03:33:19;;;;;;;4.10;3.33;;;;;;;11.29;82.44;98650.03;5063324;28;20240;-81
2021/05/11 03:35:48;;;;;;;4.30;3.30;;;;;;;11.27;82.50;98652.94;5062930;28;20221;-81
2021/05/11 03:38:14;;;;;;;4.67;3.50;;;;;;;11.25;82.36;98648.88;5062725;28;20256;-81
2021/05/11 03:40:42;;;;;;;3.83;3.53;;;;;;;11.27;82.12;98660.97;5063844;28;20679;-82
2021/05/11 03:43:14;;;;;;;4.13;3.50;;;;;;;11.27;82.38;98660.97;5065931;28;20209;-81
2021/05/11 03:45:48;;;;;;;3.60;3.13;;;;;;;11.33;82.15;98659.19;5048878;28;20255;-81
2021/05/11 03:48:14;;;;;;;4.50;3.90;;;;;;;11.37;82.16;98663.81;5065639;28;20260;-81
2021/05/11 03:50:41;;;;;;;4.20;3.90;;;;;;;11.46;81.77;98650.78;5063983;28;20429;-81
2021/05/11 03:53:09;;;;;;;4.77;3.60;;;;;;;11.96;80.89;98674.75;5062124;28;20233;-81
2021/05/11 03:55:36;;;;;;;4.10;3.57;;;;;;;12.42;78.90;98667.97;5045085;28;20222;-80
2021/05/11 03:58:03;;;;;;;3.97;3.43;;;;;;;12.65;76.97;98670.31;5061687;28;20229;-81
2021/05/11 04:00:30;;;;;;;8.27;3.70;;;;;;;13.45;74.22;98759.97;5025114;28;20229;-81
2021/05/11 04:02:57;;;;;;;4.33;3.83;;;;;;;14.50;69.03;98731.94;5039417;28;20252;-81
2021/05/11 04:05:24;;;;;;;4.50;3.00;;;;;;;14.27;68.63;98646.19;5038032;28;20229;-81
2021/05/11 04:07:55;;;;;;;3.57;3.17;;;;;;;14.01;70.16;98648.00;5034239;28;20222;-84
2021/05/11 04:10:31;;;;;;;6.00;3.83;;;;;;;13.82;71.32;98644.97;5001479;28;20226;-83
2021/05/11 04:18:12;;;;;;;4.23;3.83;;;;;;;13.49;72.98;98650.75;5054019;28;20229;-82
2021/05/11 04:20:38;;;;;;;4.13;3.73;;;;;;;13.42;73.25;98652.88;5037496;28;20225;-82
2021/05/11 04:23:05;;;;;;;6.50;4.07;;;;;;;13.47;73.57;98666.38;5033636;28;20230;-81
2021/05/11 04:25:32;;;;;;;6.90;4.03;;;;;;;13.51;73.55;98645.94;5017542;28;20237;-81
2021/05/11 04:27:59;;;;;;;5.27;4.33;;;;;;;13.65;73.47;98644.38;5052994;28;20230;-84
2021/05/11 04:30:26;;;;;;;4.70;4.00;;;;;;;13.86;72.67;98646.06;5036806;28;20295;-83
2021/05/11 04:32:52;;;;;;;5.03;3.83;;;;;;;14.07;72.12;98646.94;5053707;28;20288;-83
2021/05/11 04:35:20;;;;;;;7.33;3.40;;;;;;;14.24;70.80;98641.31;5037282;28;20285;-83
2021/05/11 04:37:47;;;;;;;4.70;3.40;;;;;;;14.40;70.34;98622.25;5037106;28;20226;-79
2021/05/11 04:40:14;;;;;;;6.23;3.20;;;;;;;14.75;69.59;98643.00;5054353;28;20287;-83
2021/05/11 04:42:43;;;;;;;3.83;3.40;;;;;;;14.96;69.46;98638.41;5054722;28;20218;-82
2021/05/11 04:45:13;;;;;;;8.77;3.63;;;;;;;15.26;68.51;98642.91;5004650;28;20234;-83
2021/05/11 04:47:47;;;;;;;4.50;3.60;;;;;;;15.53;67.50;98648.03;5054069;28;20232;-85
2021/05/11 04:50:19;;;;;;;4.83;3.30;;;;;;;15.73;66.82;98643.34;5036192;28;20235;-82
2021/05/11 04:52:46;;;;;;;4.43;3.03;;;;;;;15.93;66.42;98647.84;5020373;28;20225;-82
2021/05/11 04:55:14;;;;;;;4.63;3.30;;;;;;;16.20;65.71;98650.94;5053685;28;20639;-85
2021/05/11 04:57:41;;;;;;;4.00;3.20;;;;;;;16.42;64.89;98650.53;5037100;28;20275;-83
2021/05/11 05:00:10;;;;;;;5.13;3.90;;;;;;;16.71;63.85;98656.00;5052937;28;20229;-84
2021/05/11 05:02:40;;;;;;;4.27;3.00;;;;;;;16.90;62.91;98648.81;5037206;28;20225;-83
2021/05/11 05:05:08;;;;;;;3.97;3.10;;;;;;;17.13;63.27;98647.25;5053613;28;20283;-82
2021/05/11 05:07:36;;;;;;;4.40;2.60;;;;;;;17.28;62.14;98643.59;5053400;28;20573;-83
2021/05/11 05:10:04;;;;;;;4.33;2.90;;;;;;;17.41;63.29;98637.47;5036122;28;20320;-83
2021/05/11 05:12:30;;;;;;;10.70;3.60;;;;;;;17.58;63.33;98656.81;5036828;28;20255;-85
2021/05/11 05:14:57;;;;;;;9.37;3.90;;;;;;;17.75;63.09;98651.75;5054270;28;20229;-82
2021/05/11 05:17:24;;;;;;;9.37;3.17;;;;;;;17.85;62.75;98648.91;5036723;28;20520;-83
2021/05/11 05:19:51;;;;;;;9.53;3.23;;;;;;;17.98;62.63;98656.31;5020239;28;20240;-82
2021/05/11 05:22:18;;;;;;;9.43;3.07;;;;;;;18.07;62.31;98659.19;5052820;28;20485;-81
2021/05/11 05:24:49;;;;;;;4.67;2.67;;;;;;;18.22;59.20;98652.75;5036535;28;20225;-81
2021/05/11 05:27:24;;;;;;;3.33;2.30;;;;;;;18.55;54.22;98665.31;5027239;28;20217;-81
2021/05/11 05:29:51;;;;;;;2.73;1.97;;;;;;;19.04;52.27;98669.38;5021679;28;20224;-82
2021/05/11 05:32:18;;;;;;;3.87;2.07;;;;;;;19.29;50.68;98664.34;5035185;28;20252;-81
2021/05/11 05:34:45;;;;;;;5.23;2.00;;;;;;;19.54;50.10;98660.38;5052303;28;20221;-81
2021/05/11 05:37:12;;;;;;;3.40;2.20;;;;;;;19.82;49.44;98646.78;5051635;28;20308;-83
2021/05/11 05:39:45;;;;;;;3.33;1.97;;;;;;;19.99;48.77;98645.03;5004225;28;20227;-82
2021/05/11 05:42:12;;;;;;;3.10;2.33;;;;;;;20.18;48.53;98655.78;5019869;28;20644;-83
2021/05/11 05:44:39;;;;;;;5.77;2.37;;;;;;;20.32;48.02;98634.00;5020241;28;20221;-84
2021/05/11 05:47:06;;;;;;;6.97;2.40;;;;;;;20.57;47.42;98641.59;5036641;28;20283;-83
2021/05/11 05:49:43;;;;;;;3.10;2.23;;;;;;;20.77;47.37;98640.28;5036696;28;20318;-82
2021/05/11 05:52:17;;;;;;;2.87;2.10;;;;;;;20.98;44.89;98649.56;5036176;28;20230;-83
2021/05/11 05:54:45;;;;;;;2.77;2.00;;;;;;;21.04;43.49;98630.03;5036485;28;20283;-83
2021/05/11 05:57:12;;;;;;;3.37;2.00;;;;;;;21.18;43.18;98619.13;5053188;28;20236;-83
2021/05/11 05:59:40;;;;;;;2.50;1.97;;;;;;;21.37;42.93;98624.34;5036493;28;20233;-80
2021/05/11 06:02:10;;;;;;;3.73;2.00;;;;;;;21.53;43.49;98631.75;5053583;28;20638;-83
2021/05/11 06:04:38;;;;;;;3.50;2.30;;;;;;;21.71;43.25;98640.00;5056351;28;20277;-82
2021/05/11 06:07:05;;;;;;;3.17;1.80;;;;;;;21.89;42.64;98639.72;5056494;28;20236;-80
2021/05/11 06:09:32;;;;;;;4.87;2.20;;;;;;;22.01;42.12;98633.69;5023256;28;20664;-82
2021/05/11 06:12:14;;;;;;;4.87;1.93;;;;;;;22.04;42.32;98632.25;5039127;28;20542;-83
2021/05/11 06:17:14;;;;;;;3.53;1.90;;;;;;;22.30;40.63;98644.00;5056610;28;20251;-83
2021/05/11 06:19:45;;;;;;;3.53;1.77;;;;;;;22.36;40.12;98642.72;5056267;28;20231;-83
2021/05/11 06:22:13;;;;;;;3.90;1.87;;;;;;;22.50;40.02;98631.63;5006564;28;20220;-83
2021/05/11 06:24:41;;;;;;;4.23;1.80;;;;;;;22.48;40.75;98621.06;5019862;28;20320;-82
2021/05/11 06:27:09;;;;;;;4.67;1.80;;;;;;;22.66;39.74;98630.03;5003800;28;20231;-83
2021/05/11 06:29:38;;;;;;;3.80;2.00;;;;;;;22.83;39.09;98632.75;5034144;28;20241;-81
2021/05/11 06:32:06;;;;;;;3.43;2.17;;;;;;;22.94;39.22;98630.50;5036982;28;20223;-81
2021/05/11 06:34:34;;;;;;;3.20;1.50;;;;;;;22.92;38.50;98636.28;5020202;28;20227;-82
2021/05/11 06:37:01;;;;;;;2.77;2.03;;;;;;;23.14;38.95;98649.72;5054497;28;20518;-83
2021/05/11 06:39:28;;;;;;;3.53;2.10;;;;;;;23.19;38.39;98632.34;5039042;28;20232;-83
2021/05/11 06:41:57;;;;;;;5.40;1.83;;;;;;;23.31;38.43;98651.63;5055954;28;20232;-81
2021/05/11 06:44:45;;;;;;;2.90;1.80;;;;;;;23.35;38.29;98647.09;5054965;28;20237;-80
2021/05/11 06:55:04;;;;;;;2.47;1.80;;;;;;;23.56;38.83;98663.63;5039009;28;20782;-83
2021/05/11 06:57:30;;;;;;;4.95;1.98;;;;;;;23.69;38.45;98651.66;5038892;28;20227;-82
2021/05/11 06:59:57;;;;;;;3.97;2.00;;;;;;;23.82;38.43;98656.09;5038842;28;20232;-84
2021/05/11 07:02:24;;;;;;;2.88;1.90;;;;;;;23.81;38.67;98646.28;5021759;28;20730;-80
2021/05/11 07:04:52;;;;;;;6.28;1.80;;;;;;;24.02;38.53;98641.66;5038925;28;20225;-82
2021/05/11 07:07:21;;;;;;;2.75;1.90;;;;;;;24.08;38.50;98637.59;5038666;28;20641;-83
2021/05/11 07:15:03;;;;;;;4.97;2.05;;;;;;;24.61;35.66;98635.28;5038269;28;20311;-81
2021/05/11 07:17:30;;;;;;;8.25;1.90;;;;;;;24.60;36.03;98637.22;5022088;28;20237;-82
2021/05/11 07:19:57;;;;;;;3.60;2.00;;;;;;;24.74;35.97;98621.31;5038015;28;20226;-81
2021/05/11 07:22:24;;;;;;;5.05;1.75;;;;;;;24.77;35.53;98617.13;5054663;28;20240;-82
2021/05/11 07:24:54;;;;;;;4.57;1.90;;;;;;;24.83;35.66;98627.50;5038145;28;20225;-82
2021/05/11 07:32:18;;;;;;;3.33;1.90;;;;;;;25.05;34.71;98617.34;5037789;28;20654;-82
2021/05/11 07:34:48;;;;;;;3.33;1.70;;;;;;;25.10;34.20;98603.44;5038026;28;20646;-82
2021/05/11 07:37:15;;;;;;;3.17;1.60;;;;;;;25.07;34.15;98613.13;5022230;28;20644;-82
2021/05/11 07:39:46;;;;;;;4.70;1.70;;;;;;;25.08;33.82;98601.03;5022322;28;20295;-81
2021/05/11 07:42:13;;;;;;;4.68;1.63;;;;;;;25.25;33.55;98610.97;5021192;28;20229;-82
2021/05/11 07:44:43;;;;;;;2.40;1.80;;;;;;;25.24;33.59;98617.63;5038210;28;20232;-82
2021/05/11 07:48:06;;;;;;;5.05;1.80;;;;;;;25.16;33.79;98629.47;5038104;28;20249;-81
2021/05/11 07:50:24;;;;;;;2.20;1.60;;;;;;;25.30;32.76;98627.19;5033508;28;20651;-82
2021/05/11 08:15:29;;;;;;;3.17;1.80;;;;;;;25.80;31.75;98622.22;5034751;28;20685;-81
2021/05/11 08:17:32;;;;;;;2.25;1.55;;;;;;;25.85;32.04;98615.72;5042574;28;20230;-83
2021/05/11 08:28:01;;;;;;;4.78;1.80;;;;;;;26.17;31.44;98633.19;5053001;28;20230;-82
2021/05/11 08:30:28;;;;;;;6.10;1.70;;;;;;;26.29;31.11;98633.19;5035814;28;20231;-83
2021/05/11 08:32:55;;;;;;;5.60;1.58;;;;;;;26.37;30.26;98620.44;5035743;28;20267;-82
2021/05/11 08:35:22;;;;;;;4.78;1.60;;;;;;;26.42;29.96;98631.19;5020010;28;20247;-82
2021/05/11 08:37:49;;;;;;;4.57;1.73;;;;;;;26.42;29.75;98625.69;5036041;28;20231;-83
2021/05/11 08:40:16;;;;;;;4.80;1.80;;;;;;;26.47;30.17;98620.75;5035645;28;20223;-82
2021/05/11 08:42:43;;;;;;;3.38;1.75;;;;;;;26.48;30.01;98614.13;5036200;28;20773;-82
2021/05/11 08:45:12;;;;;;;5.40;1.70;;;;;;;26.64;29.43;98633.44;5035556;28;20259;-82
2021/05/11 08:47:49;;;;;;;6.10;1.73;;;;;;;26.60;29.39;98629.75;5035949;28;20236;-82
2021/05/11 08:50:24;;;;;;;4.10;1.73;;;;;;;26.63;29.50;98618.09;5051800;28;20538;-82
2021/05/11 09:09:24;;;;;;;4.13;1.67;;;;;;;27.01;29.92;98623.91;5021396;28;20229;-82
2021/05/11 09:25:30;;;;;;;3.65;1.58;;;;;;;27.16;29.68;98627.78;5039099;28;20229;-83
2021/05/11 09:28:07;;;;;;;4.40;2.00;;;;;;;27.12;30.26;98618.66;5053396;28;20289;-82
2021/05/11 09:33:50;;;;;;;3.63;1.75;;;;;;;27.54;29.44;98614.28;4988021;28;20543;-82
2021/05/11 10:49:33;;;;;;;4.75;2.05;;;;;;;29.99;24.92;98564.78;5055094;28;20253;-81
2021/05/11 10:52:25;;;;;;;3.58;1.73;;;;;;;29.96;25.59;98548.16;5041319;28;20252;-81
2021/05/11 11:00:22;;;;;;;3.35;1.30;;;;;;;30.01;23.77;98564.41;5038731;28;20230;-82
2021/05/11 11:03:17;;;;;;;3.45;1.58;;;;;;;30.09;24.25;98561.38;5038892;28;20213;-81
2021/05/11 11:05:57;;;;;;;3.17;1.80;;;;;;;30.21;24.41;98565.06;5023080;28;20324;-80
2021/05/11 11:08:39;;;;;;;2.05;1.50;;;;;;;30.38;23.58;98550.66;5054898;28;20614;-82
2021/05/11 11:11:10;;;;;;;3.13;1.63;;;;;;;30.33;24.32;98546.28;5022686;28;20234;-81
2021/05/11 11:13:42;;;;;;;4.03;1.52;;;;;;;30.37;24.47;98544.38;5054865;28;20233;-81
2021/05/11 11:16:10;;;;;;;3.08;1.50;;;;;;;30.42;23.25;98560.59;5038402;28;20644;-81
2021/05/11 11:18:38;;;;;;;3.20;1.40;;;;;;;30.43;23.17;98547.56;5022124;28;20313;-81
2021/05/11 11:23:49;;;;;;;4.95;1.70;;;;;;;30.71;23.81;98561.75;5038807;28;20873;-81
2021/05/11 11:26:33;;;;;;;3.35;1.52;;;;;;;30.82;22.76;98535.00;5021644;28;20229;-82
2021/05/11 11:29:05;;;;;;;2.88;1.60;;;;;;;30.77;23.49;98543.66;5038154;28;20531;-81
2021/05/11 11:31:44;;;;;;;1.98;1.50;;;;;;;30.78;23.92;98533.38;5055357;28;20229;-82
2021/05/11 11:34:25;;;;;;;2.15;1.52;;;;;;;30.88;22.74;98535.47;5054298;28;20224;-82
2021/05/11 11:37:01;;;;;;;7.22;1.83;;;;;;;30.94;22.71;98547.75;5021667;28;20229;-81
2021/05/11 11:39:33;;;;;;;2.92;1.77;;;;;;;30.96;23.16;98542.66;5038175;28;20236;-82
2021/05/11 11:42:05;;;;;;;3.75;1.40;;;;;;;30.98;23.08;98518.19;5054799;28;20703;-84
2021/05/11 11:44:38;;;;;;;2.95;1.70;;;;;;;30.98;23.08;98524.50;5021394;28;20233;-81
2021/05/11 11:47:10;;;;;;;2.35;1.70;;;;;;;30.71;23.52;98514.75;5054441;28;20295;-80
2021/05/11 11:49:45;;;;;;;4.88;1.77;;;;;;;30.59;23.70;98521.34;5054493;28;20229;-80
2021/05/11 11:52:25;;;;;;;3.33;1.58;;;;;;;30.58;23.24;98527.25;5054086;28;20228;-80
2021/05/11 12:00:22;;;;;;;5.90;1.40;;;;;;;30.80;22.90;98522.72;5036886;28;22451;-81
2021/05/11 12:03:10;;;;;;;4.63;1.60;;;;;;;30.68;23.00;98511.94;5054429;28;20531;-81
2021/05/11 12:06:09;;;;;;;2.58;1.50;;;;;;;30.90;22.56;98505.44;5018003;28;20229;-81
2021/05/11 12:08:34;;;;;;;2.75;1.45;;;;;;;31.19;23.30;98503.75;5035935;28;20300;-81
2021/05/11 12:11:06;;;;;;;7.03;1.65;;;;;;;31.20;23.22;98500.63;5054392;28;20279;-81
2021/05/11 12:13:35;;;;;;;3.40;1.60;;;;;;;31.45;22.60;98509.09;5037216;28;20618;-81
2021/05/11 12:16:18;;;;;;;2.95;1.50;;;;;;;31.82;22.62;98497.91;5037128;28;20229;-81
2021/05/11 12:21:51;;;;;;;4.18;1.75;;;;;;;32.37;21.36;98473.63;5022758;28;20226;-81
2021/05/11 12:24:27;;;;;;;5.53;1.80;;;;;;;32.24;21.21;98480.69;5037020;28;20217;-82
2021/05/11 12:27:20;;;;;;;5.80;1.60;;;;;;;32.08;21.54;98469.13;5037684;28;20628;-82
2021/05/11 12:30:05;;;;;;;2.72;1.50;;;;;;;32.42;20.76;98467.69;5037487;28;20233;-81
2021/05/11 12:32:32;;;;;;;4.20;1.70;;;;;;;32.52;20.48;98472.44;5037086;28;20225;-84
2021/05/11 12:35:09;;;;;;;3.03;1.50;;;;;;;32.59;20.13;98455.84;5024172;28;20222;-83
2021/05/11 12:37:57;;;;;;;2.92;1.58;;;;;;;33.05;20.29;98474.50;5017831;28;20230;-82
2021/05/11 12:40:31;;;;;;;4.20;1.83;;;;;;;33.14;20.18;98481.25;5017267;28;20232;-84
2021/05/11 12:43:01;;;;;;;5.45;2.00;;;;;;;33.30;19.81;98463.44;5018178;28;20236;-81
2021/05/11 12:45:39;;;;;;;4.25;1.70;;;;;;;33.45;19.57;98465.81;5023104;28;20298;-81
2021/05/11 12:48:08;;;;;;;4.53;1.45;;;;;;;33.72;18.83;98454.25;5036576;28;20229;-81
2021/05/11 12:50:39;;;;;;;2.35;1.48;;;;;;;33.67;18.82;98438.78;5054696;28;20248;-81
2021/05/11 12:53:40;;;;;;;3.83;1.52;;;;;;;33.84;18.04;98443.50;5037010;28;20230;-81
2021/05/11 12:56:28;;;;;;;5.45;1.58;;;;;;;33.94;17.97;98437.09;5036311;28;20233;-80
2021/05/11 13:21:34;;;;;;;4.00;1.30;;;;;;;33.52;19.11;98415.00;5042451;28;20644;-83
2021/05/11 13:26:55;;;;;;;2.15;1.50;;;;;;;33.51;18.55;98410.63;5057959;28;20229;-81
2021/05/11 13:29:37;;;;;;;5.30;1.55;;;;;;;33.50;18.92;98400.75;5040931;28;20229;-81
2021/05/11 13:32:08;;;;;;;3.78;1.58;;;;;;;33.73;18.21;98403.06;5054659;28;20225;-83
2021/05/11 13:34:35;;;;;;;1.92;1.58;;;;;;;34.25;17.96;98401.25;5040803;28;20301;-84
2021/05/11 13:37:02;;;;;;;5.65;1.52;;;;;;;34.66;17.61;98395.78;5040478;28;20295;-82
2021/05/11 13:39:29;;;;;;;1.85;1.63;;;;;;;34.99;16.29;98402.69;5040828;28;20525;-82
2021/05/11 13:41:55;;;;;;;2.90;1.50;;;;;;;36.14;16.05;98391.50;5040093;28;20316;-81
2021/05/11 13:44:24;;;;;;;3.45;1.35;;;;;;;37.07;15.38;98388.06;5040134;28;20233;-81
2021/05/11 13:46:50;;;;;;;3.00;1.55;;;;;;;37.53;14.63;98392.81;5039837;28;20610;-81
2021/05/11 13:49:19;;;;;;;3.17;1.50;;;;;;;38.50;14.15;98381.94;5053998;28;20230;-84
2021/05/11 13:51:46;;;;;;;1.70;1.30;;;;;;;40.16;12.42;98378.69;5039985;28;20227;-83
2021/05/11 13:54:16;;;;;;;2.00;1.40;;;;;;;40.80;12.71;98371.84;5039599;28;20224;-81
2021/05/11 13:56:55;;;;;;;5.43;1.67;;;;;;;41.49;11.88;98358.59;5055652;28;20564;-83
2021/05/11 14:05:09;;;;;;;6.82;1.70;;;;;;;41.82;11.75;98370.22;4988268;28;20304;-81
2021/05/11 14:07:35;;;;;;;3.33;1.52;;;;;;;41.46;11.41;98367.16;5055611;28;20227;-82
2021/05/11 14:10:04;;;;;;;2.90;1.40;;;;;;;40.63;12.08;98371.19;5039817;28;20636;-81
2021/05/11 14:12:31;;;;;;;2.65;1.40;;;;;;;39.65;12.91;98350.53;5056483;28;20275;-83
2021/05/11 14:14:59;;;;;;;3.50;1.42;;;;;;;38.33;14.17;98338.38;5039598;28;20217;-83
2021/05/11 14:17:26;;;;;;;4.85;1.80;;;;;;;36.86;16.11;98352.91;5039553;28;20234;-81
2021/05/11 14:19:56;;;;;;;3.40;2.05;;;;;;;35.21;17.07;98337.28;5039003;28;20233;-83
2021/05/11 14:22:23;;;;;;;4.43;1.73;;;;;;;34.40;17.81;98331.22;5016621;28;20540;-83
2021/05/11 14:24:50;;;;;;;3.13;1.75;;;;;;;34.12;18.68;98328.63;5034813;28;20218;-83
2021/05/11 14:27:18;;;;;;;3.42;1.98;;;;;;;33.62;18.86;98339.19;5027622;28;20279;-81
2021/05/11 14:29:45;;;;;;;4.50;1.70;;;;;;;33.34;18.63;98339.31;5055859;28;20237;-81
2021/05/11 14:32:12;;;;;;;3.92;2.03;;;;;;;32.91;19.62;98325.50;5022256;28;20253;-81
2021/05/11 14:34:40;;;;;;;4.55;2.55;;;;;;;32.94;20.21;98349.69;5038866;28;20227;-82
2021/05/11 14:37:07;;;;;;;5.10;2.10;;;;;;;32.80;19.53;98341.41;5038567;28;20221;-82
2021/05/11 14:39:34;;;;;;;5.07;2.20;;;;;;;32.48;19.84;98335.03;5022310;28;20229;-81
2021/05/11 14:42:01;;;;;;;3.88;2.08;;;;;;;32.39;20.03;98334.63;5037506;28;20252;-81
2021/05/11 14:44:27;;;;;;;3.83;1.92;;;;;;;32.25;20.49;98327.09;5051366;28;20624;-81
2021/05/11 14:46:57;;;;;;;3.95;1.60;;;;;;;32.20;20.29;98336.59;5037568;28;20257;-81
2021/05/11 14:49:26;;;;;;;4.50;1.77;;;;;;;32.38;20.65;98344.94;5035062;28;20226;-82
2021/05/11 14:51:53;;;;;;;4.20;1.98;;;;;;;32.17;20.82;98325.50;5037554;28;20312;-82
2021/05/11 14:54:20;;;;;;;3.30;1.75;;;;;;;32.17;20.93;98334.63;5020066;28;20512;-82
2021/05/11 14:56:47;;;;;;;2.45;1.55;;;;;;;31.92;20.65;98336.50;5037495;28;20218;-82
2021/05/11 14:59:14;;;;;;;3.53;1.70;;;;;;;31.89;20.67;98337.28;5039107;28;20344;-81
2021/05/11 15:01:42;;;;;;;3.55;1.67;;;;;;;31.75;21.24;98329.75;5055362;28;20220;-82
2021/05/11 15:04:08;;;;;;;3.13;1.60;;;;;;;31.59;21.74;98348.66;5038628;28;20229;-82
2021/05/11 15:06:35;;;;;;;4.28;1.60;;;;;;;31.36;21.94;98343.38;5038890;28;20221;-82
2021/05/11 15:09:03;;;;;;;3.45;1.75;;;;;;;31.47;21.50;98335.94;5039009;28;20261;-83
2021/05/11 15:11:31;;;;;;;5.78;1.58;;;;;;;31.17;22.24;98318.00;5054918;28;20229;-82
2021/05/11 15:13:59;;;;;;;3.70;1.85;;;;;;;31.14;21.55;98329.84;5038134;28;20676;-82
2021/05/11 15:16:28;;;;;;;3.67;1.60;;;;;;;30.99;22.30;98335.25;5037430;28;20749;-82
2021/05/11 15:18:55;;;;;;;3.72;1.52;;;;;;;31.00;22.33;98314.72;5055095;28;20264;-82
2021/05/11 15:21:22;;;;;;;6.97;1.65;;;;;;;30.81;22.24;98325.25;5056016;28;20249;-81
2021/05/11 15:23:50;;;;;;;2.88;1.60;;;;;;;30.60;22.22;98329.47;5038287;28;20241;-82
2021/05/11 15:26:17;;;;;;;2.20;1.75;;;;;;;30.49;22.52;98322.25;5037811;28;20230;-81
2021/05/11 15:28:45;;;;;;;2.75;1.85;;;;;;;30.52;22.99;98327.81;5022183;28;20551;-83
2021/05/11 15:31:12;;;;;;;6.45;1.55;;;;;;;30.43;23.04;98329.28;5038273;28;20640;-82
2021/05/11 15:33:39;;;;;;;3.92;2.03;;;;;;;30.53;22.93;98326.63;5038055;28;20228;-82
2021/05/11 15:36:06;;;;;;;2.97;1.90;;;;;;;30.75;23.37;98340.63;5037032;28;20232;-82
2021/05/11 15:38:33;;;;;;;1.95;1.52;;;;;;;30.68;22.96;98318.44;5021085;28;20226;-82
2021/05/11 15:41:00;;;;;;;4.40;1.65;;;;;;;30.78;23.63;98337.88;5037438;28;20228;-82
2021/05/11 15:43:27;;;;;;;2.55;1.90;;;;;;;30.83;23.49;98340.31;5018013;28;20281;-82
2021/05/11 15:45:54;;;;;;;3.72;1.67;;;;;;;30.55;23.21;98335.34;5034769;28;20257;-83
2021/05/11 15:48:21;;;;;;;2.30;1.80;;;;;;;30.61;23.13;98325.50;5021023;28;20555;-82
2021/05/11 15:50:48;;;;;;;3.85;1.80;;;;;;;30.42;23.81;98341.53;5037967;28;20225;-82
2021/05/11 15:53:18;;;;;;;3.25;1.60;;;;;;;30.42;23.26;98339.53;5054313;28;20222;-83
2021/05/11 15:55:49;;;;;;;2.83;1.77;;;;;;;30.32;23.54;98336.69;5038044;28;20653;-81
2021/05/11 15:58:18;;;;;;;4.32;1.88;;;;;;;30.27;23.73;98320.47;5036604;28;20664;-81
2021/05/11 16:00:50;;;;;;;5.00;1.77;;;;;;;30.37;23.54;98336.34;5055453;28;20649;-82
2021/05/11 16:03:17;;;;;;;3.88;1.60;;;;;;;30.22;23.19;98334.63;5038060;28;20308;-82
2021/05/11 16:05:46;;;;;;;4.85;1.75;;;;;;;30.10;23.25;98330.16;5021386;28;20237;-81
2021/05/11 16:08:17;;;;;;;5.15;1.80;;;;;;;29.98;23.85;98339.53;5020681;28;20225;-83